AVA8434 SKBO-SKBQ
Flight info
| Callsign | AVA8434 |
|---|---|
| Flight time | 1h 8m |
| Altitude | 38000 |
| Route | DANSA4R GIKPU UQ120 DIBAM UW9 ELB/N0417F240 W12 DARNI DARNI1A |
| Aircraft | A320/M-SDE3FGHIRWY/LB1 |
Departure
| Time | 2026-04-23 21:20 |
|---|---|
| Airport | El Dorado International Airport (SKBO) |
Arrival
| Time | 2026-04-23 22:29 |
|---|---|
| Airport | Ernesto Cortissoz International Airport (SKBQ) |
| Time | Latitude | Longitude | Altitude | Speed | Heading |
|---|---|---|---|---|---|
| 2026-04-23 20:48 | 4.69941 | -74.14077 | 8370 ft | 0 kts | 218° |
| 2026-04-23 21:11 | 4.69953 | -74.14068 | 8370 ft | 2 kts | 221° |
| 2026-04-23 21:11 | 4.69966 | -74.14057 | 8370 ft | 2 kts | 221° |
| 2026-04-23 21:12 | 4.69978 | -74.14046 | 8370 ft | 2 kts | 224° |
| 2026-04-23 21:12 | 4.69990 | -74.14034 | 8370 ft | 2 kts | 230° |
| 2026-04-23 21:12 | 4.70002 | -74.14016 | 8370 ft | 2 kts | 264° |
| 2026-04-23 21:12 | 4.70002 | -74.14005 | 8370 ft | 2 kts | 301° |
| 2026-04-23 21:13 | 4.69997 | -74.13998 | 8370 ft | 0 kts | 309° |
| 2026-04-23 21:14 | 4.70002 | -74.14004 | 8370 ft | 6 kts | 309° |
| 2026-04-23 21:14 | 4.70055 | -74.14035 | 8370 ft | 12 kts | 8° |
| 2026-04-23 21:15 | 4.70054 | -74.13954 | 8370 ft | 17 kts | 127° |
| 2026-04-23 21:15 | 4.69978 | -74.13853 | 8370 ft | 19 kts | 127° |
| 2026-04-23 21:15 | 4.69899 | -74.13749 | 8370 ft | 19 kts | 126° |
| 2026-04-23 21:15 | 4.69820 | -74.13643 | 8370 ft | 19 kts | 128° |
| 2026-04-23 21:16 | 4.69739 | -74.13538 | 8370 ft | 22 kts | 127° |
| 2026-04-23 21:16 | 4.69631 | -74.13395 | 8370 ft | 27 kts | 127° |
| 2026-04-23 21:16 | 4.69519 | -74.13247 | 8369 ft | 27 kts | 127° |
| 2026-04-23 21:16 | 4.69408 | -74.13099 | 8370 ft | 27 kts | 127° |
| 2026-04-23 21:17 | 4.69336 | -74.12944 | 8370 ft | 24 kts | 88° |
| 2026-04-23 21:17 | 4.69272 | -74.12803 | 8369 ft | 23 kts | 127° |
| 2026-04-23 21:17 | 4.69200 | -74.12682 | 8369 ft | 15 kts | 78° |
| 2026-04-23 21:17 | 4.69219 | -74.12604 | 8369 ft | 0 kts | 76° |
| 2026-04-23 21:18 | 4.69223 | -74.12591 | 8369 ft | 4 kts | 75° |
| 2026-04-23 21:18 | 4.69231 | -74.12559 | 8369 ft | 4 kts | 75° |
| 2026-04-23 21:18 | 4.69257 | -74.12518 | 8369 ft | 9 kts | 42° |
| 2026-04-23 21:19 | 4.69297 | -74.12512 | 8369 ft | 5 kts | 313° |
| 2026-04-23 21:19 | 4.69301 | -74.12517 | 8369 ft | 0 kts | 309° |
| 2026-04-23 21:19 | 4.69349 | -74.12580 | 8369 ft | 38 kts | 306° |
| 2026-04-23 21:20 | 4.69651 | -74.12981 | 8367 ft | 103 kts | 307° |
| 2026-04-23 21:20 | 4.70199 | -74.13706 | 8369 ft | 156 kts | 307° |
| 2026-04-23 21:20 | 4.70923 | -74.14674 | 8649 ft | 178 kts | 305° |
| 2026-04-23 21:20 | 4.71678 | -74.15657 | 9484 ft | 178 kts | 307° |
| 2026-04-23 21:21 | 4.72458 | -74.16679 | 9792 ft | 195 kts | 307° |
| 2026-04-23 21:21 | 4.73322 | -74.17827 | 10026 ft | 216 kts | 307° |
| 2026-04-23 21:21 | 4.74280 | -74.19106 | 10208 ft | 244 kts | 306° |
| 2026-04-23 21:21 | 4.75296 | -74.20571 | 10469 ft | 269 kts | 296° |
| 2026-04-23 21:22 | 4.75662 | -74.22460 | 10819 ft | 289 kts | 267° |
| 2026-04-23 21:22 | 4.75410 | -74.24525 | 11189 ft | 310 kts | 260° |
| 2026-04-23 21:22 | 4.74961 | -74.26712 | 11501 ft | 331 kts | 257° |
| 2026-04-23 21:22 | 4.74419 | -74.28981 | 12019 ft | 339 kts | 256° |
| 2026-04-23 21:23 | 4.73853 | -74.31315 | 11964 ft | 350 kts | 257° |
| 2026-04-23 21:23 | 4.73301 | -74.33694 | 11893 ft | 351 kts | 257° |
| 2026-04-23 21:23 | 4.72778 | -74.36090 | 11866 ft | 352 kts | 258° |
| 2026-04-23 21:23 | 4.72279 | -74.38516 | 12101 ft | 359 kts | 259° |
| 2026-04-23 21:24 | 4.71788 | -74.40966 | 12944 ft | 359 kts | 258° |
| 2026-04-23 21:24 | 4.70887 | -74.43299 | 13660 ft | 364 kts | 236° |
| 2026-04-23 21:24 | 4.69062 | -74.45051 | 14304 ft | 369 kts | 211° |
| 2026-04-23 21:24 | 4.66670 | -74.46018 | 14960 ft | 374 kts | 194° |
| 2026-04-23 21:25 | 4.64107 | -74.46237 | 15591 ft | 380 kts | 176° |
| 2026-04-23 21:25 | 4.61534 | -74.45599 | 16241 ft | 385 kts | 157° |
| 2026-04-23 21:25 | 4.59257 | -74.44168 | 16879 ft | 391 kts | 139° |
| 2026-04-23 21:25 | 4.57508 | -74.42069 | 17519 ft | 397 kts | 121° |
| 2026-04-23 21:26 | 4.56465 | -74.39502 | 18169 ft | 402 kts | 103° |
| 2026-04-23 21:26 | 4.56275 | -74.36707 | 18751 ft | 406 kts | 84° |
| 2026-04-23 21:26 | 4.56981 | -74.33969 | 19329 ft | 409 kts | 65° |
| 2026-04-23 21:26 | 4.58523 | -74.31583 | 19913 ft | 410 kts | 46° |
| 2026-04-23 21:27 | 4.60748 | -74.29814 | 20509 ft | 410 kts | 27° |
| 2026-04-23 21:27 | 4.63375 | -74.28701 | 21112 ft | 411 kts | 19° |
| 2026-04-23 21:27 | 4.66059 | -74.27684 | 21708 ft | 414 kts | 19° |
| 2026-04-23 21:27 | 4.68761 | -74.26664 | 22286 ft | 416 kts | 19° |
| 2026-04-23 21:28 | 4.71481 | -74.25636 | 22842 ft | 419 kts | 19° |
| 2026-04-23 21:28 | 4.74214 | -74.24601 | 23371 ft | 422 kts | 19° |
| 2026-04-23 21:28 | 4.76969 | -74.23553 | 23867 ft | 425 kts | 19° |
| 2026-04-23 21:28 | 4.79738 | -74.22499 | 24268 ft | 427 kts | 19° |
| 2026-04-23 21:29 | 4.82526 | -74.21435 | 24648 ft | 430 kts | 19° |
| 2026-04-23 21:29 | 4.85332 | -74.20366 | 25042 ft | 433 kts | 19° |
| 2026-04-23 21:29 | 4.88160 | -74.19289 | 25421 ft | 436 kts | 20° |
| 2026-04-23 21:29 | 4.91010 | -74.18203 | 25773 ft | 440 kts | 20° |
| 2026-04-23 21:30 | 4.93880 | -74.17110 | 26116 ft | 443 kts | 20° |
| 2026-04-23 21:30 | 4.96771 | -74.16010 | 26461 ft | 446 kts | 20° |
| 2026-04-23 21:30 | 4.99684 | -74.14900 | 26785 ft | 449 kts | 20° |
| 2026-04-23 21:30 | 5.02615 | -74.13783 | 27106 ft | 453 kts | 20° |
| 2026-04-23 21:31 | 5.05571 | -74.12657 | 27421 ft | 456 kts | 21° |
| 2026-04-23 21:31 | 5.08545 | -74.11525 | 27732 ft | 459 kts | 21° |
| 2026-04-23 21:31 | 5.11578 | -74.10371 | 28043 ft | 462 kts | 21° |
| 2026-04-23 21:31 | 5.14592 | -74.09225 | 28340 ft | 465 kts | 21° |
| 2026-04-23 21:32 | 5.17587 | -74.08087 | 28622 ft | 468 kts | 21° |
| 2026-04-23 21:32 | 5.20636 | -74.06927 | 28930 ft | 470 kts | 21° |
| 2026-04-23 21:32 | 5.23706 | -74.05761 | 29246 ft | 473 kts | 21° |
| 2026-04-23 21:32 | 5.26791 | -74.04588 | 29540 ft | 475 kts | 21° |
| 2026-04-23 21:33 | 5.29889 | -74.03407 | 29840 ft | 478 kts | 21° |
| 2026-04-23 21:33 | 5.33002 | -74.02220 | 30113 ft | 480 kts | 21° |
| 2026-04-23 21:33 | 5.36129 | -74.01028 | 30345 ft | 482 kts | 21° |
| 2026-04-23 21:33 | 5.39270 | -73.99832 | 30575 ft | 483 kts | 21° |
| 2026-04-23 21:34 | 5.42416 | -73.98634 | 30832 ft | 484 kts | 21° |
| 2026-04-23 21:34 | 5.45560 | -73.97436 | 31152 ft | 483 kts | 21° |
| 2026-04-23 21:34 | 5.48737 | -73.96221 | 31468 ft | 482 kts | 21° |
| 2026-04-23 21:34 | 5.51870 | -73.95023 | 31803 ft | 481 kts | 21° |
| 2026-04-23 21:35 | 5.54954 | -73.93843 | 32127 ft | 480 kts | 21° |
| 2026-04-23 21:35 | 5.58078 | -73.92652 | 32472 ft | 480 kts | 21° |
| 2026-04-23 21:35 | 5.61194 | -73.91467 | 32808 ft | 479 kts | 21° |
| 2026-04-23 21:35 | 5.64308 | -73.90281 | 33147 ft | 478 kts | 21° |
| 2026-04-23 21:36 | 5.70565 | -73.87896 | 33805 ft | 477 kts | 22° |
| 2026-04-23 21:36 | 5.73664 | -73.86714 | 34122 ft | 477 kts | 22° |
| 2026-04-23 21:36 | 5.76766 | -73.85528 | 34427 ft | 476 kts | 22° |
| 2026-04-23 21:37 | 5.79859 | -73.84342 | 34743 ft | 475 kts | 22° |
| 2026-04-23 21:37 | 5.82906 | -73.83174 | 35061 ft | 474 kts | 22° |
| 2026-04-23 21:37 | 5.85986 | -73.81994 | 35385 ft | 473 kts | 22° |
| 2026-04-23 21:37 | 5.89061 | -73.80820 | 35702 ft | 473 kts | 22° |
| 2026-04-23 21:38 | 5.92132 | -73.79648 | 36018 ft | 472 kts | 22° |
| 2026-04-23 21:38 | 5.95196 | -73.78480 | 36323 ft | 471 kts | 22° |
| 2026-04-23 21:38 | 5.98258 | -73.77315 | 36629 ft | 470 kts | 22° |
| 2026-04-23 21:38 | 6.01356 | -73.76142 | 36923 ft | 469 kts | 20° |
| 2026-04-23 21:39 | 6.04470 | -73.75296 | 37203 ft | 470 kts | 13° |
| 2026-04-23 21:39 | 6.07672 | -73.74641 | 37456 ft | 470 kts | 13° |
| 2026-04-23 21:39 | 6.10873 | -73.73983 | 37712 ft | 469 kts | 13° |
| 2026-04-23 21:39 | 6.14072 | -73.73328 | 37919 ft | 469 kts | 13° |
| 2026-04-23 21:40 | 6.17267 | -73.72672 | 37957 ft | 469 kts | 13° |
| 2026-04-23 21:40 | 6.23693 | -73.71346 | 37946 ft | 468 kts | 13° |
| 2026-04-23 21:41 | 6.30070 | -73.70034 | 37935 ft | 468 kts | 13° |
| 2026-04-23 21:41 | 6.36448 | -73.68722 | 37927 ft | 468 kts | 13° |
| 2026-04-23 21:42 | 6.42827 | -73.67404 | 37923 ft | 468 kts | 13° |
| 2026-04-23 21:42 | 6.49205 | -73.66087 | 37918 ft | 468 kts | 13° |
| 2026-04-23 21:43 | 6.55581 | -73.64770 | 37913 ft | 468 kts | 13° |
| 2026-04-23 21:43 | 6.61958 | -73.63457 | 37911 ft | 468 kts | 13° |
| 2026-04-23 21:44 | 6.68338 | -73.62141 | 37909 ft | 468 kts | 13° |
| 2026-04-23 21:44 | 6.74717 | -73.60826 | 37899 ft | 468 kts | 13° |
| 2026-04-23 21:45 | 6.81098 | -73.59512 | 37885 ft | 468 kts | 13° |
| 2026-04-23 21:45 | 6.87480 | -73.58197 | 37875 ft | 468 kts | 13° |
| 2026-04-23 21:46 | 6.93867 | -73.56871 | 37865 ft | 469 kts | 13° |
| 2026-04-23 21:46 | 7.00340 | -73.56168 | 37867 ft | 471 kts | 358° |
| 2026-04-23 21:47 | 7.06884 | -73.56501 | 37860 ft | 471 kts | 358° |
| 2026-04-23 21:47 | 7.13433 | -73.56812 | 37857 ft | 471 kts | 358° |
| 2026-04-23 21:48 | 7.19986 | -73.57118 | 37860 ft | 471 kts | 358° |
| 2026-04-23 21:48 | 7.26541 | -73.57430 | 37866 ft | 472 kts | 358° |
| 2026-04-23 21:49 | 7.33099 | -73.57743 | 37867 ft | 472 kts | 358° |
| 2026-04-23 21:49 | 7.39616 | -73.58057 | 37865 ft | 472 kts | 358° |
| 2026-04-23 21:50 | 7.46173 | -73.58372 | 37869 ft | 472 kts | 358° |
| 2026-04-23 21:50 | 7.52737 | -73.58689 | 37871 ft | 472 kts | 358° |
| 2026-04-23 21:51 | 7.59300 | -73.59001 | 37869 ft | 472 kts | 358° |
| 2026-04-23 21:51 | 7.65861 | -73.59311 | 37871 ft | 472 kts | 358° |
| 2026-04-23 21:52 | 7.72426 | -73.59630 | 37872 ft | 472 kts | 358° |
| 2026-04-23 21:52 | 7.78993 | -73.59942 | 37876 ft | 472 kts | 358° |
| 2026-04-23 21:53 | 7.85560 | -73.60256 | 37877 ft | 473 kts | 358° |
| 2026-04-23 21:53 | 7.92088 | -73.60573 | 37883 ft | 473 kts | 358° |
| 2026-04-23 21:54 | 7.98665 | -73.60889 | 37886 ft | 473 kts | 358° |
| 2026-04-23 21:54 | 8.05246 | -73.61202 | 37888 ft | 474 kts | 358° |
| 2026-04-23 21:55 | 8.11834 | -73.61517 | 37887 ft | 474 kts | 358° |
| 2026-04-23 21:55 | 8.17307 | -73.61825 | 37893 ft | 474 kts | 353° |
| 2026-04-23 21:55 | 8.21619 | -73.62760 | 37891 ft | 475 kts | 341° |
| 2026-04-23 21:56 | 8.23668 | -73.63536 | 37901 ft | 475 kts | 338° |
| 2026-04-23 21:56 | 8.29788 | -73.66047 | 37896 ft | 475 kts | 338° |
| 2026-04-23 21:57 | 8.35915 | -73.68563 | 37892 ft | 475 kts | 338° |
| 2026-04-23 21:57 | 8.42045 | -73.71076 | 37896 ft | 475 kts | 338° |
| 2026-04-23 21:58 | 8.48178 | -73.73585 | 37895 ft | 476 kts | 338° |
| 2026-04-23 21:58 | 8.54310 | -73.76095 | 37896 ft | 476 kts | 338° |
| 2026-04-23 21:59 | 8.60397 | -73.78598 | 37898 ft | 475 kts | 337° |
| 2026-04-23 21:59 | 8.66525 | -73.81116 | 37896 ft | 475 kts | 337° |
| 2026-04-23 22:00 | 8.75714 | -73.84886 | 37892 ft | 475 kts | 337° |
| 2026-04-23 22:00 | 8.81833 | -73.87393 | 37890 ft | 475 kts | 337° |
| 2026-04-23 22:01 | 8.87954 | -73.89907 | 37889 ft | 474 kts | 337° |
| 2026-04-23 22:01 | 8.94064 | -73.92420 | 37888 ft | 474 kts | 337° |
| 2026-04-23 22:02 | 9.00174 | -73.94933 | 37881 ft | 473 kts | 337° |
| 2026-04-23 22:02 | 9.06254 | -73.97489 | 37874 ft | 473 kts | 334° |
| 2026-04-23 22:03 | 9.12162 | -74.00410 | 37873 ft | 472 kts | 331° |
| 2026-04-23 22:03 | 9.17979 | -74.03505 | 37876 ft | 472 kts | 331° |
| 2026-04-23 22:04 | 9.23786 | -74.06521 | 37872 ft | 472 kts | 332° |
| 2026-04-23 22:04 | 9.29668 | -74.09492 | 37871 ft | 472 kts | 332° |
| 2026-04-23 22:05 | 9.35475 | -74.12420 | 37696 ft | 462 kts | 332° |
| 2026-04-23 22:05 | 9.38339 | -74.13869 | 37303 ft | 459 kts | 332° |
| 2026-04-23 22:05 | 9.41195 | -74.15319 | 36916 ft | 459 kts | 332° |
| 2026-04-23 22:06 | 9.44043 | -74.16768 | 36542 ft | 459 kts | 332° |
| 2026-04-23 22:06 | 9.46900 | -74.18221 | 36173 ft | 460 kts | 332° |
| 2026-04-23 22:06 | 9.49759 | -74.19675 | 35752 ft | 460 kts | 332° |
| 2026-04-23 22:06 | 9.52619 | -74.21130 | 35162 ft | 459 kts | 332° |
| 2026-04-23 22:07 | 9.55466 | -74.22578 | 34583 ft | 458 kts | 332° |
| 2026-04-23 22:07 | 9.58311 | -74.24027 | 34014 ft | 457 kts | 332° |
| 2026-04-23 22:07 | 9.61145 | -74.25471 | 33388 ft | 455 kts | 332° |
| 2026-04-23 22:07 | 9.63974 | -74.26909 | 32683 ft | 456 kts | 332° |
| 2026-04-23 22:08 | 9.66819 | -74.28357 | 31773 ft | 461 kts | 332° |
| 2026-04-23 22:08 | 9.69690 | -74.29817 | 31023 ft | 461 kts | 332° |
| 2026-04-23 22:08 | 9.72548 | -74.31272 | 30329 ft | 460 kts | 332° |
| 2026-04-23 22:08 | 9.75402 | -74.32725 | 29593 ft | 457 kts | 332° |
| 2026-04-23 22:09 | 9.78241 | -74.34169 | 28812 ft | 455 kts | 332° |
| 2026-04-23 22:09 | 9.81062 | -74.35604 | 28049 ft | 453 kts | 332° |
| 2026-04-23 22:09 | 9.83875 | -74.37037 | 27301 ft | 451 kts | 332° |
| 2026-04-23 22:09 | 9.86669 | -74.38464 | 26570 ft | 449 kts | 332° |
| 2026-04-23 22:10 | 9.89454 | -74.39888 | 25859 ft | 446 kts | 332° |
| 2026-04-23 22:10 | 9.92219 | -74.41298 | 25171 ft | 444 kts | 332° |
| 2026-04-23 22:10 | 9.94972 | -74.42697 | 24497 ft | 442 kts | 332° |
| 2026-04-23 22:10 | 9.97715 | -74.44090 | 23831 ft | 439 kts | 332° |
| 2026-04-23 22:11 | 10.00437 | -74.45473 | 23142 ft | 437 kts | 332° |
| 2026-04-23 22:11 | 10.03150 | -74.46856 | 22371 ft | 435 kts | 332° |
| 2026-04-23 22:11 | 10.05851 | -74.48234 | 21624 ft | 434 kts | 332° |
| 2026-04-23 22:11 | 10.08545 | -74.49611 | 20898 ft | 433 kts | 332° |
| 2026-04-23 22:12 | 10.11223 | -74.50979 | 20291 ft | 429 kts | 332° |
| 2026-04-23 22:12 | 10.13839 | -74.52317 | 19716 ft | 425 kts | 333° |
| 2026-04-23 22:12 | 10.16417 | -74.53754 | 19147 ft | 421 kts | 327° |
| 2026-04-23 22:12 | 10.18144 | -74.54864 | 18750 ft | 419 kts | 327° |
| 2026-04-23 22:13 | 10.20050 | -74.56087 | 18321 ft | 417 kts | 327° |
| 2026-04-23 22:13 | 10.22493 | -74.57651 | 17706 ft | 414 kts | 327° |
| 2026-04-23 22:13 | 10.24921 | -74.59205 | 17078 ft | 411 kts | 327° |
| 2026-04-23 22:13 | 10.27335 | -74.60749 | 16463 ft | 409 kts | 327° |
| 2026-04-23 22:14 | 10.29735 | -74.62284 | 15853 ft | 406 kts | 327° |
| 2026-04-23 22:14 | 10.32117 | -74.63810 | 15253 ft | 404 kts | 327° |
| 2026-04-23 22:14 | 10.34482 | -74.65327 | 14681 ft | 401 kts | 327° |
| 2026-04-23 22:14 | 10.36833 | -74.66830 | 14114 ft | 398 kts | 327° |
| 2026-04-23 22:15 | 10.39165 | -74.68318 | 13537 ft | 394 kts | 327° |
| 2026-04-23 22:15 | 10.41480 | -74.69794 | 12903 ft | 391 kts | 327° |
| 2026-04-23 22:15 | 10.43771 | -74.71255 | 12271 ft | 387 kts | 327° |
| 2026-04-23 22:15 | 10.46031 | -74.72709 | 11683 ft | 383 kts | 327° |
| 2026-04-23 22:16 | 10.48259 | -74.74150 | 11211 ft | 375 kts | 327° |
| 2026-04-23 22:16 | 10.50427 | -74.75552 | 10859 ft | 364 kts | 327° |
| 2026-04-23 22:16 | 10.52532 | -74.76910 | 10592 ft | 352 kts | 327° |
| 2026-04-23 22:16 | 10.54564 | -74.78217 | 10360 ft | 340 kts | 327° |
| 2026-04-23 22:17 | 10.56529 | -74.79479 | 10132 ft | 329 kts | 327° |
| 2026-04-23 22:17 | 10.58401 | -74.80744 | 9867 ft | 316 kts | 324° |
| 2026-04-23 22:17 | 10.60159 | -74.82000 | 9377 ft | 303 kts | 323° |
| 2026-04-23 22:17 | 10.61839 | -74.83230 | 8873 ft | 294 kts | 323° |
| 2026-04-23 22:18 | 10.63482 | -74.84441 | 8280 ft | 289 kts | 323° |
| 2026-04-23 22:18 | 10.65090 | -74.85623 | 7677 ft | 282 kts | 323° |
| 2026-04-23 22:18 | 10.66666 | -74.86777 | 7086 ft | 277 kts | 324° |
| 2026-04-23 22:18 | 10.68215 | -74.87908 | 6494 ft | 271 kts | 324° |
| 2026-04-23 22:19 | 10.69736 | -74.89016 | 5901 ft | 267 kts | 324° |
| 2026-04-23 22:19 | 10.71235 | -74.90103 | 5294 ft | 262 kts | 325° |
| 2026-04-23 22:19 | 10.72878 | -74.90807 | 4692 ft | 257 kts | 356° |
| 2026-04-23 22:19 | 10.74573 | -74.90423 | 4081 ft | 252 kts | 32° |
| 2026-04-23 22:20 | 10.75936 | -74.89329 | 3473 ft | 249 kts | 42° |
| 2026-04-23 22:20 | 10.77223 | -74.88158 | 2869 ft | 246 kts | 41° |
| 2026-04-23 22:20 | 10.78490 | -74.87057 | 2459 ft | 232 kts | 40° |
| 2026-04-23 22:20 | 10.79687 | -74.86032 | 2154 ft | 218 kts | 40° |
| 2026-04-23 22:21 | 10.80807 | -74.85074 | 1882 ft | 210 kts | 40° |
| 2026-04-23 22:21 | 10.81928 | -74.84114 | 1618 ft | 206 kts | 40° |
| 2026-04-23 22:21 | 10.83019 | -74.83181 | 1351 ft | 203 kts | 39° |
| 2026-04-23 22:21 | 10.84092 | -74.82274 | 1156 ft | 204 kts | 39° |
| 2026-04-23 22:22 | 10.85180 | -74.81340 | 1121 ft | 209 kts | 40° |
| 2026-04-23 22:22 | 10.86297 | -74.80368 | 1223 ft | 215 kts | 40° |
| 2026-04-23 22:22 | 10.87439 | -74.79391 | 1883 ft | 215 kts | 39° |
| 2026-04-23 22:22 | 10.88612 | -74.78397 | 2315 ft | 226 kts | 39° |
| 2026-04-23 22:23 | 10.89793 | -74.77262 | 2557 ft | 240 kts | 54° |
| 2026-04-23 22:23 | 10.90417 | -74.75686 | 2801 ft | 244 kts | 81° |
| 2026-04-23 22:23 | 10.90258 | -74.73976 | 2978 ft | 247 kts | 111° |
| 2026-04-23 22:23 | 10.89292 | -74.72554 | 3032 ft | 247 kts | 136° |
| 2026-04-23 22:24 | 10.87838 | -74.71661 | 3032 ft | 246 kts | 166° |
| 2026-04-23 22:24 | 10.86147 | -74.71651 | 3033 ft | 246 kts | 197° |
| 2026-04-23 22:24 | 10.84658 | -74.72479 | 3038 ft | 246 kts | 218° |
| 2026-04-23 22:24 | 10.83347 | -74.73571 | 3031 ft | 234 kts | 221° |
| 2026-04-23 22:25 | 10.82169 | -74.74597 | 3033 ft | 217 kts | 221° |
| 2026-04-23 22:25 | 10.81074 | -74.75555 | 3029 ft | 202 kts | 221° |
| 2026-04-23 22:25 | 10.80061 | -74.76440 | 3061 ft | 183 kts | 221° |
| 2026-04-23 22:25 | 10.79229 | -74.77217 | 2816 ft | 171 kts | 230° |
| 2026-04-23 22:26 | 10.78680 | -74.78281 | 2322 ft | 174 kts | 253° |
| 2026-04-23 22:26 | 10.78620 | -74.79484 | 1936 ft | 173 kts | 291° |
| 2026-04-23 22:26 | 10.79352 | -74.80401 | 1660 ft | 165 kts | 328° |
| 2026-04-23 22:26 | 10.80384 | -74.80893 | 1598 ft | 164 kts | 340° |
| 2026-04-23 22:27 | 10.81456 | -74.81278 | 1451 ft | 163 kts | 344° |
| 2026-04-23 22:27 | 10.82558 | -74.81484 | 1311 ft | 159 kts | 359° |
| 2026-04-23 22:27 | 10.83629 | -74.81407 | 1192 ft | 148 kts | 10° |
| 2026-04-23 22:27 | 10.84585 | -74.81201 | 934 ft | 135 kts | 17° |
| 2026-04-23 22:28 | 10.85434 | -74.80883 | 716 ft | 128 kts | 28° |
| 2026-04-23 22:28 | 10.86212 | -74.80395 | 596 ft | 131 kts | 37° |
| 2026-04-23 22:28 | 10.86935 | -74.79824 | 455 ft | 132 kts | 39° |
| 2026-04-23 22:28 | 10.87629 | -74.79235 | 241 ft | 128 kts | 40° |
| 2026-04-23 22:29 | 10.88292 | -74.78667 | 106 ft | 115 kts | 42° |
| 2026-04-23 22:29 | 10.88784 | -74.78242 | 99 ft | 68 kts | 39° |
| 2026-04-23 22:29 | 10.88981 | -74.78054 | 97 ft | 18 kts | 87° |
| 2026-04-23 22:29 | 10.88912 | -74.77953 | 96 ft | 13 kts | 131° |
| 2026-04-23 22:30 | 10.88854 | -74.77886 | 96 ft | 12 kts | 133° |
| 2026-04-23 22:30 | 10.88805 | -74.77825 | 96 ft | 11 kts | 128° |
| 2026-04-23 22:30 | 10.88808 | -74.77768 | 97 ft | 9 kts | 51° |
| 2026-04-23 22:30 | 10.88861 | -74.77720 | 96 ft | 10 kts | 52° |
| 2026-04-23 22:31 | 10.88836 | -74.77677 | 96 ft | 5 kts | 130° |
| 2026-04-23 22:31 | 10.88824 | -74.77662 | 96 ft | 1 kts | 130° |